Time;durP1;ratioP1;P1;durP2;ratioP2;P2;SDS_P1;SDS_P2;PMS_P1;PMS_P2;Temp;Humidity;BMP_temperature;BMP_pressure;BME280_temperature;BME280_humidity;BME280_pressure;Samples;Min_cycle;Max_cycle;Signal;HPM_P1;HPM_P2
2021/12/22 00:00:21;;;;;;;3.53;1.88;;;20.40;68.10;;;;;;4956888;28;97571;-55
2021/12/22 00:02:52;;;;;;;3.20;1.80;;;20.40;69.40;;;;;;4941289;28;95864;-56
2021/12/22 00:05:26;;;;;;;;;;;20.50;69.40;;;;;;4939155;28;96666;-55
2021/12/22 00:07:58;;;;;;;2.38;1.60;;;20.50;69.30;;;;;;4937943;28;95867;-51
2021/12/22 00:10:30;;;;;;;2.20;1.70;;;20.50;69.30;;;;;;4945749;28;96272;-54
2021/12/22 00:13:01;;;;;;;4.85;1.75;;;20.50;69.30;;;;;;4944606;28;96598;-54
2021/12/22 00:15:33;;;;;;;3.67;1.90;;;20.50;69.90;;;;;;4923271;28;97324;-55
2021/12/22 00:18:04;;;;;;;2.05;1.33;;;20.60;69.30;;;;;;4945529;28;96137;-57
2021/12/22 00:20:37;;;;;;;4.63;1.70;;;20.60;69.20;;;;;;4944496;28;95818;-54
2021/12/22 00:23:08;;;;;;;3.05;1.73;;;20.60;69.10;;;;;;4941201;28;95801;-54
2021/12/22 00:25:38;;;;;;;3.80;1.63;;;20.60;69.00;;;;;;4941021;28;97917;-57
2021/12/22 00:28:09;;;;;;;5.45;1.63;;;20.70;68.80;;;;;;4943973;28;95697;-57
2021/12/22 00:30:41;;;;;;;5.65;2.22;;;20.70;68.70;;;;;;4938055;28;95833;-52
2021/12/22 00:33:13;;;;;;;6.60;2.08;;;20.80;67.10;;;;;;4945905;28;95961;-52
2021/12/22 00:35:46;;;;;;;4.43;1.23;;;20.80;68.80;;;;;;4943257;28;96650;-55
2021/12/22 00:38:21;;;;;;;2.50;1.58;;;20.80;68.60;;;;;;4943011;28;96409;-54
2021/12/22 00:40:52;;;;;;;4.72;1.58;;;20.90;68.50;;;;;;4940387;28;95880;-55
2021/12/22 00:43:24;;;;;;;3.72;1.75;;;20.90;68.30;;;;;;4936909;28;97799;-53
2021/12/22 00:45:56;;;;;;;;;;;20.90;68.20;;;;;;4938481;28;97016;-54
2021/12/22 00:48:27;;;;;;;4.97;1.40;;;20.90;68.30;;;;;;4945997;28;95312;-55
2021/12/22 00:50:59;;;;;;;4.55;1.85;;;21.00;67.50;;;;;;4947050;28;95796;-52
2021/12/22 00:53:30;;;;;;;3.13;1.83;;;21.00;67.90;;;;;;4946918;28;95929;-54
2021/12/22 00:56:00;;;;;;;6.23;2.07;;;20.90;67.90;;;;;;4944929;28;97599;-54
2021/12/22 00:58:30;;;;;;;4.32;1.85;;;21.00;68.00;;;;;;4943707;28;95884;-57
2021/12/22 01:01:03;;;;;;;8.38;1.70;;;21.10;67.90;;;;;;4939930;28;95828;-53
2021/12/22 01:03:35;;;;;;;4.97;1.67;;;21.10;67.50;;;;;;4948244;28;95188;-55
2021/12/22 01:06:08;;;;;;;3.80;1.75;;;21.20;67.80;;;;;;4944684;28;96856;-53
2021/12/22 01:08:40;;;;;;;1.42;1.20;;;21.30;67.80;;;;;;4943002;28;95951;-55
2021/12/22 01:11:12;;;;;;;2.65;1.08;;;21.40;68.00;;;;;;4947711;28;96421;-52
2021/12/22 01:13:45;;;;;;;3.28;1.45;;;21.50;68.30;;;;;;4939459;28;95295;-53
2021/12/22 01:16:17;;;;;;;2.25;1.67;;;21.60;68.20;;;;;;4931311;28;101826;-55
2021/12/22 01:18:48;;;;;;;1.67;1.17;;;21.70;68.10;;;;;;4945707;28;96761;-57
2021/12/22 01:21:27;;;;;;;3.90;1.85;;;21.70;68.10;;;;;;4947803;28;96393;-58
2021/12/22 01:24:02;;;;;;;2.42;1.30;;;21.80;68.10;;;;;;4946445;28;95900;-58
2021/12/22 01:26:35;;;;;;;3.75;1.50;;;21.80;68.00;;;;;;4975081;28;96830;-57
2021/12/22 01:29:06;;;;;;;2.95;1.42;;;21.90;68.00;;;;;;4942069;28;96635;-58
2021/12/22 01:31:36;;;;;;;1.53;0.93;;;22.00;68.00;;;;;;4938006;28;96168;-58
2021/12/22 01:34:07;;;;;;;;;;;22.00;67.90;;;;;;4946533;28;96547;-57
2021/12/22 01:36:37;;;;;;;1.40;0.90;;;22.10;67.90;;;;;;4962687;28;96173;-57
2021/12/22 01:39:09;;;;;;;2.10;1.30;;;22.10;67.90;;;;;;4963040;28;96469;-58
2021/12/22 01:41:41;;;;;;;4.80;1.20;;;22.20;67.90;;;;;;4947218;28;95265;-56
2021/12/22 01:44:28;;;;;;;2.15;1.15;;;22.20;67.00;;;;;;4946209;28;95333;-58
2021/12/22 01:49:53;;;;;;;2.95;1.25;;;22.40;67.30;;;;;;4943920;28;95489;-57
2021/12/22 01:52:24;;;;;;;1.55;0.90;;;22.60;67.00;;;;;;4946437;28;95881;-59
2021/12/22 01:55:03;;;;;;;;;;;22.70;66.80;;;;;;4947079;28;95842;-57
2021/12/22 01:57:46;;;;;;;1.53;0.70;;;22.90;66.60;;;;;;4948782;28;96671;-58
2021/12/22 02:00:20;;;;;;;1.60;0.95;;;23.00;66.30;;;;;;4940963;28;96807;-55
2021/12/22 02:02:51;;;;;;;1.80;1.30;;;23.10;66.30;;;;;;4962664;28;95310;-58
2021/12/22 02:05:23;;;;;;;3.58;1.20;;;23.20;66.00;;;;;;4961072;28;95999;-56
2021/12/22 02:07:56;;;;;;;2.00;0.98;;;23.30;65.90;;;;;;4967632;28;95898;-54
2021/12/22 02:10:40;;;;;;;2.92;1.20;;;23.40;65.80;;;;;;4967661;28;96839;-55
2021/12/22 02:13:16;;;;;;;1.50;0.90;;;23.50;65.50;;;;;;4964860;28;95926;-54
2021/12/22 02:15:49;;;;;;;1.70;1.20;;;23.60;65.40;;;;;;4946674;28;96145;-57
2021/12/22 02:18:21;;;;;;;1.98;1.10;;;23.60;63.80;;;;;;4963097;28;96330;-55
2021/12/22 02:20:53;;;;;;;3.00;1.60;;;23.50;63.70;;;;;;4963026;28;96183;-54
2021/12/22 02:23:23;;;;;;;;;;;23.50;64.00;;;;;;4967225;28;95251;-57
2021/12/22 02:25:58;;;;;;;3.05;1.50;;;23.70;63.90;;;;;;4969760;28;95646;-57
2021/12/22 02:28:33;;;;;;;2.15;1.30;;;23.80;63.90;;;;;;4966803;28;96545;-51
2021/12/22 02:31:04;;;;;;;1.67;1.25;;;23.90;63.90;;;;;;4959416;28;95811;-56
2021/12/22 02:33:37;;;;;;;3.22;1.23;;;24.00;63.70;;;;;;4967724;28;95764;-59
2021/12/22 02:36:19;;;;;;;2.80;1.20;;;24.00;63.70;;;;;;4961174;28;96689;-56
2021/12/22 02:38:56;;;;;;;2.92;1.27;;;24.10;63.60;;;;;;4961877;28;96438;-55
2021/12/22 02:41:30;;;;;;;2.90;1.58;;;24.20;63.60;;;;;;4967777;28;95848;-57
2021/12/22 02:44:01;;;;;;;1.30;1.10;;;24.30;63.50;;;;;;4966287;28;95871;-54
2021/12/22 02:46:34;;;;;;;1.70;1.10;;;24.40;63.40;;;;;;4960167;28;95616;-51
2021/12/22 02:49:07;;;;;;;1.50;1.23;;;24.40;63.40;;;;;;4964688;28;96230;-54
2021/12/22 02:51:40;;;;;;;2.38;1.38;;;24.50;63.30;;;;;;4966585;28;96505;-55
2021/12/22 03:02:25;;;;;;;3.53;1.85;;;24.70;62.10;;;;;;4955810;28;95992;-56
2021/12/22 03:04:58;;;;;;;8.63;1.90;;;24.20;58.70;;;;;;4976837;28;95741;-54
2021/12/22 03:07:31;;;;;;;3.42;1.83;;;23.80;59.00;;;;;;4961560;28;95388;-55
2021/12/22 03:10:14;;;;;;;4.97;1.55;;;23.50;59.80;;;;;;4975414;28;96140;-58
2021/12/22 03:12:50;;;;;;;4.32;1.83;;;23.20;60.40;;;;;;4959872;28;96468;-54
2021/12/22 03:15:25;;;;;;;6.20;2.33;;;23.10;60.60;;;;;;4950485;28;95853;-53
2021/12/22 03:17:58;;;;;;;7.35;1.98;;;23.10;61.40;;;;;;4996307;28;95965;-55
2021/12/22 03:20:30;;;;;;;4.93;1.60;;;23.00;60.80;;;;;;4966363;28;96432;-53
2021/12/22 03:23:01;;;;;;;5.05;2.05;;;22.90;60.90;;;;;;4966711;28;95673;-56
2021/12/22 03:25:32;;;;;;;5.82;2.17;;;22.80;60.90;;;;;;4965534;28;95259;-57
2021/12/22 03:28:04;;;;;;;6.45;2.25;;;22.70;61.00;;;;;;4960227;28;95966;-57
2021/12/22 03:30:35;;;;;;;7.43;1.90;;;22.60;61.30;;;;;;4954918;28;96900;-51
2021/12/22 03:33:06;;;;;;;7.63;2.53;;;22.50;61.50;;;;;;4982367;28;95927;-51
2021/12/22 03:35:38;;;;;;;6.72;2.25;;;22.50;61.70;;;;;;4966343;28;96481;-55
2021/12/22 03:38:08;;;;;;;7.10;2.72;;;22.50;61.70;;;;;;4967112;28;96629;-53
2021/12/22 03:40:38;;;;;;;3.88;2.00;;;22.40;61.30;;;;;;4967398;28;96830;-56
2021/12/22 03:43:08;;;;;;;8.90;2.08;;;22.30;62.10;;;;;;4961936;28;95751;-53
2021/12/22 03:45:40;;;;;;;3.65;1.85;;;22.40;62.10;;;;;;4955930;28;98704;-56
2021/12/22 03:48:10;;;;;;;12.77;2.80;;;22.50;62.30;;;;;;4964827;28;95305;-56
2021/12/22 03:50:40;;;;;;;7.03;2.38;;;22.70;62.00;;;;;;4966176;28;97658;-54
2021/12/22 03:53:10;;;;;;;7.32;2.80;;;22.60;61.20;;;;;;4963695;28;95757;-53
2021/12/22 03:55:41;;;;;;;7.30;2.45;;;22.50;61.50;;;;;;4965164;28;96091;-55
2021/12/22 03:58:11;;;;;;;13.13;2.42;;;22.40;61.60;;;;;;4967364;28;95902;-55
2021/12/22 04:00:43;;;;;;;6.28;2.33;;;22.40;61.90;;;;;;4953478;28;96078;-53
2021/12/22 04:03:19;;;;;;;8.10;2.75;;;22.40;62.00;;;;;;4965365;28;95619;-53
2021/12/22 04:05:51;;;;;;;9.20;2.28;;;22.30;62.20;;;;;;4966883;28;96385;-58
2021/12/22 04:08:23;;;;;;;7.18;2.50;;;22.30;62.10;;;;;;4965605;28;95275;-57
2021/12/22 04:10:54;;;;;;;6.75;2.22;;;22.20;61.60;;;;;;4966585;28;96811;-56
2021/12/22 04:13:25;;;;;;;9.43;2.60;;;22.20;61.50;;;;;;4962841;28;96913;-54
2021/12/22 04:15:56;;;;;;;;;;;22.20;61.20;;;;;;4947579;28;96027;-55
2021/12/22 04:18:27;;;;;;;10.40;2.95;;;22.10;61.50;;;;;;4962035;28;96885;-54
2021/12/22 04:20:57;;;;;;;;;;;22.10;61.60;;;;;;4965933;28;95427;-54
2021/12/22 04:23:28;;;;;;;9.13;3.00;;;22.10;61.50;;;;;;4967192;28;96573;-54
2021/12/22 04:25:58;;;;;;;6.13;2.75;;;22.10;61.70;;;;;;4967540;28;95307;-52
2021/12/22 04:28:29;;;;;;;12.15;3.25;;;22.10;61.80;;;;;;4965838;28;96591;-50
2021/12/22 04:31:02;;;;;;;8.65;2.88;;;22.10;61.70;;;;;;4986339;28;96295;-57
2021/12/22 04:33:34;;;;;;;5.38;2.15;;;22.00;61.90;;;;;;4962271;28;96383;-52
2021/12/22 04:36:05;;;;;;;7.53;3.17;;;22.00;61.90;;;;;;4963334;28;95538;-55
2021/12/22 04:38:35;;;;;;;9.68;3.17;;;22.10;61.90;;;;;;4966680;28;95341;-58
2021/12/22 04:41:05;;;;;;;7.03;2.92;;;22.10;62.00;;;;;;4963857;28;96228;-56
2021/12/22 04:43:37;;;;;;;9.18;2.80;;;22.10;61.70;;;;;;4963749;28;95744;-55
2021/12/22 04:46:10;;;;;;;8.80;3.08;;;22.10;62.00;;;;;;4954720;28;95868;-52
2021/12/22 04:48:40;;;;;;;6.95;2.83;;;22.10;62.10;;;;;;4962164;28;96280;-56
2021/12/22 04:51:22;;;;;;;11.93;2.83;;;22.20;62.00;;;;;;4960564;28;96986;-53
2021/12/22 04:54:16;;;;;;;8.65;3.08;;;22.20;61.70;;;;;;4964285;28;96366;-51
2021/12/22 04:56:46;;;;;;;11.30;3.33;;;22.20;61.70;;;;;;4965790;28;96181;-54
2021/12/22 04:59:16;;;;;;;12.77;2.80;;;22.20;61.50;;;;;;4971261;28;96049;-56
2021/12/22 05:01:46;;;;;;;9.15;3.08;;;22.30;60.20;;;;;;4956167;28;96634;-56
2021/12/22 05:04:16;;;;;;;9.68;2.92;;;22.30;61.40;;;;;;4962611;28;95770;-57
2021/12/22 05:06:48;;;;;;;8.65;2.92;;;22.30;61.50;;;;;;4961229;28;97602;-52
2021/12/22 05:09:19;;;;;;;12.55;3.45;;;22.30;61.20;;;;;;4976713;28;95959;-54
2021/12/22 05:11:52;;;;;;;7.38;3.08;;;22.30;61.00;;;;;;4962971;28;96431;-53
2021/12/22 05:14:23;;;;;;;7.90;2.95;;;22.30;61.10;;;;;;4956388;28;95961;-52
2021/12/22 05:16:59;;;;;;;7.95;2.92;;;22.40;61.40;;;;;;4948571;28;97871;-57
2021/12/22 05:19:30;;;;;;;7.55;2.58;;;22.40;61.40;;;;;;4964818;28;95604;-56
2021/12/22 05:22:01;;;;;;;6.93;2.43;;;22.40;61.20;;;;;;4961628;28;96579;-53
2021/12/22 05:24:32;;;;;;;6.68;2.72;;;22.40;60.90;;;;;;4946582;28;96068;-50
2021/12/22 05:27:07;;;;;;;9.63;3.30;;;22.40;60.80;;;;;;4959110;28;98285;-52
2021/12/22 05:29:38;;;;;;;4.80;2.25;;;22.40;60.80;;;;;;4962380;28;95409;-52
2021/12/22 05:32:08;;;;;;;11.10;2.67;;;22.40;60.90;;;;;;4954980;28;98466;-53
2021/12/22 05:34:38;;;;;;;9.70;3.05;;;22.40;60.40;;;;;;4963307;28;96155;-51
2021/12/22 05:37:09;;;;;;;10.30;2.70;;;22.50;60.50;;;;;;4963025;28;95791;-54
2021/12/22 05:39:39;;;;;;;10.93;3.42;;;22.40;60.30;;;;;;4975777;28;95907;-55
2021/12/22 05:42:09;;;;;;;10.10;3.03;;;22.40;60.50;;;;;;4964761;28;97085;-53
2021/12/22 05:44:42;;;;;;;8.57;2.53;;;22.60;61.10;;;;;;4970685;28;96218;-52
2021/12/22 05:47:13;;;;;;;6.40;2.42;;;22.80;61.80;;;;;;4956394;28;96324;-52
2021/12/22 05:49:48;;;;;;;6.72;2.10;;;22.90;61.00;;;;;;4963300;28;95640;-55
2021/12/22 05:52:21;;;;;;;4.32;2.47;;;23.00;61.20;;;;;;4965235;28;96262;-53
2021/12/22 05:54:51;;;;;;;;;;;23.10;61.10;;;;;;4964679;28;95783;-51
2021/12/22 05:57:21;;;;;;;8.55;2.22;;;23.10;61.20;;;;;;4964053;28;95608;-52
2021/12/22 05:59:51;;;;;;;5.23;1.90;;;23.20;61.30;;;;;;4963342;28;96117;-56
2021/12/22 06:02:22;;;;;;;6.10;2.47;;;23.20;61.40;;;;;;4956157;28;96434;-53
2021/12/22 06:04:53;;;;;;;3.45;1.92;;;23.30;61.40;;;;;;4962494;28;95881;-57
2021/12/22 06:07:25;;;;;;;3.83;1.65;;;23.40;61.50;;;;;;4963415;28;96479;-52
2021/12/22 06:09:56;;;;;;;4.55;2.22;;;23.40;61.50;;;;;;4964608;28;95918;-55
2021/12/22 06:12:28;;;;;;;4.10;1.83;;;23.40;61.60;;;;;;4962814;28;98234;-49
2021/12/22 06:14:59;;;;;;;3.13;1.70;;;23.50;61.70;;;;;;4947178;28;96204;-50
2021/12/22 06:17:30;;;;;;;3.53;1.55;;;23.50;61.80;;;;;;4958590;28;95979;-52
2021/12/22 06:20:03;;;;;;;2.95;2.03;;;23.60;61.80;;;;;;4964594;28;95567;-52
2021/12/22 06:22:36;;;;;;;4.30;1.88;;;23.60;61.70;;;;;;4977211;28;96143;-56
2021/12/22 06:25:07;;;;;;;4.00;2.13;;;23.70;61.70;;;;;;4960773;28;96032;-52
2021/12/22 06:27:38;;;;;;;6.15;2.10;;;23.70;61.80;;;;;;4963544;28;95650;-60
2021/12/22 06:30:10;;;;;;;;;;;23.80;61.70;;;;;;4957658;28;96473;-57
2021/12/22 06:32:40;;;;;;;8.55;3.20;;;23.70;59.90;;;;;;4964889;28;102744;-55
2021/12/22 06:35:10;;;;;;;7.13;2.77;;;23.70;60.20;;;;;;4966141;28;95788;-57
2021/12/22 06:37:44;;;;;;;8.50;3.10;;;23.70;60.60;;;;;;4967016;28;95605;-60
2021/12/22 06:40:15;;;;;;;7.65;3.47;;;23.60;59.00;;;;;;4968035;28;95960;-58
2021/12/22 06:42:46;;;;;;;7.15;3.00;;;23.60;58.60;;;;;;4968768;28;97150;-61
2021/12/22 06:45:18;;;;;;;7.28;3.10;;;23.60;58.40;;;;;;4963840;28;96534;-59
2021/12/22 06:47:50;;;;;;;10.63;4.93;;;23.60;59.00;;;;;;4952372;28;95853;-58
2021/12/22 06:50:22;;;;;;;10.15;4.13;;;23.40;56.30;;;;;;4953455;28;95682;-58
2021/12/22 06:52:53;;;;;;;8.85;3.80;;;23.00;57.20;;;;;;4955770;28;96302;-59
2021/12/22 06:55:25;;;;;;;12.43;4.90;;;22.90;57.50;;;;;;4954955;28;95890;-55
2021/12/22 06:57:55;;;;;;;11.77;4.60;;;22.60;56.60;;;;;;4955209;28;95980;-59
2021/12/22 07:00:26;;;;;;;18.10;4.97;;;22.50;56.60;;;;;;4950431;28;96507;-57
2021/12/22 07:02:58;;;;;;;17.45;3.97;;;22.40;56.80;;;;;;4960447;28;102995;-59
2021/12/22 07:05:31;;;;;;;13.02;4.10;;;22.30;57.30;;;;;;4957865;28;97940;-59
2021/12/22 07:08:02;;;;;;;17.13;4.10;;;22.60;57.20;;;;;;4963456;28;96057;-57
2021/12/22 07:10:34;;;;;;;11.30;4.85;;;22.50;56.50;;;;;;4963989;28;96229;-58
2021/12/22 07:13:06;;;;;;;16.42;3.35;;;22.40;56.80;;;;;;4962967;28;96645;-57
2021/12/22 07:15:38;;;;;;;13.65;3.47;;;22.30;57.00;;;;;;4944855;28;96319;-57
2021/12/22 07:18:10;;;;;;;;;;;22.20;56.70;;;;;;4962923;28;96354;-59
2021/12/22 07:20:43;;;;;;;13.95;3.78;;;22.30;56.90;;;;;;4961637;28;95837;-58
2021/12/22 07:23:14;;;;;;;12.50;4.28;;;22.20;56.90;;;;;;4962692;28;96488;-58
2021/12/22 07:25:48;;;;;;;12.15;3.33;;;22.10;56.90;;;;;;4965223;28;96207;-56
2021/12/22 07:28:19;;;;;;;15.05;4.53;;;22.00;56.90;;;;;;4964878;28;95268;-58
2021/12/22 07:30:51;;;;;;;20.08;3.95;;;22.10;56.90;;;;;;4953818;28;96710;-59
2021/12/22 07:33:21;;;;;;;12.20;3.47;;;21.90;56.70;;;;;;4944628;28;96538;-58
2021/12/22 07:35:51;;;;;;;9.85;3.45;;;21.90;56.60;;;;;;4942101;28;95865;-59
2021/12/22 07:38:39;;;;;;;11.23;3.45;;;21.90;56.70;;;;;;4942941;28;95336;-57
2021/12/22 07:41:10;;;;;;;12.60;3.38;;;22.10;56.60;;;;;;4945235;28;96045;-59
2021/12/22 07:43:41;;;;;;;14.30;4.97;;;22.20;56.20;;;;;;4944888;28;96752;-54
2021/12/22 07:46:13;;;;;;;18.90;4.70;;;22.30;55.70;;;;;;4935000;28;98144;-57
2021/12/22 07:48:44;;;;;;;11.45;4.28;;;22.00;55.70;;;;;;4944452;28;97213;-53
2021/12/22 07:51:14;;;;;;;10.65;3.75;;;21.90;56.20;;;;;;4941168;28;96123;-59
2021/12/22 07:53:44;;;;;;;16.42;4.78;;;21.90;56.00;;;;;;4955430;28;96862;-56
2021/12/22 07:56:15;;;;;;;16.20;4.53;;;21.90;56.30;;;;;;4940766;28;95855;-53
2021/12/22 07:58:47;;;;;;;15.45;4.53;;;22.00;55.80;;;;;;4945025;28;95927;-57
2021/12/22 08:01:17;;;;;;;12.63;3.92;;;22.00;55.70;;;;;;4936040;28;95970;-59
2021/12/22 08:03:50;;;;;;;10.73;4.80;;;22.00;55.20;;;;;;4944885;28;96629;-60
2021/12/22 08:06:22;;;;;;;27.85;7.32;;;22.00;55.40;;;;;;4959346;28;96035;-54
2021/12/22 08:08:54;;;;;;;20.02;6.88;;;22.00;55.30;;;;;;4928720;28;96099;-56
2021/12/22 08:11:26;;;;;;;12.13;3.97;;;22.00;55.30;;;;;;4954813;28;96174;-56
2021/12/22 08:13:59;;;;;;;22.15;4.55;;;22.00;55.30;;;;;;4939333;28;96709;-57
2021/12/22 08:16:34;;;;;;;13.57;4.18;;;22.00;55.40;;;;;;4932096;28;95864;-55
2021/12/22 08:19:05;;;;;;;11.57;3.88;;;21.90;55.60;;;;;;4945345;28;96673;-59
2021/12/22 08:21:36;;;;;;;12.10;3.45;;;21.90;55.70;;;;;;4945836;28;95943;-59
2021/12/22 08:24:08;;;;;;;13.00;3.85;;;21.90;56.00;;;;;;4943085;28;96149;-55
2021/12/22 08:26:38;;;;;;;;;;;21.90;56.00;;;;;;4940908;28;96045;-58
2021/12/22 08:29:11;;;;;;;13.70;4.25;;;21.80;55.60;;;;;;4940937;28;95830;-59
2021/12/22 08:31:42;;;;;;;14.02;4.35;;;21.80;49.10;;;;;;4936820;28;96029;-59
2021/12/22 08:34:22;;;;;;;13.70;4.07;;;21.80;53.50;;;;;;4942928;28;96099;-57
2021/12/22 08:39:42;;;;;;;11.70;3.85;;;21.60;55.30;;;;;;4944702;28;96713;-59
2021/12/22 08:42:12;;;;;;;13.80;4.18;;;21.50;55.40;;;;;;4941101;28;95325;-58
2021/12/22 08:44:45;;;;;;;15.15;4.32;;;21.50;55.20;;;;;;4939715;28;96458;-56
2021/12/22 08:47:17;;;;;;;19.80;8.98;;;21.40;55.30;;;;;;4933420;28;98316;-58
2021/12/22 08:49:47;;;;;;;;;;;21.40;55.60;;;;;;4944268;28;95695;-56
2021/12/22 08:52:18;;;;;;;16.70;6.35;;;21.30;55.40;;;;;;4943909;28;95276;-55
2021/12/22 08:54:48;;;;;;;10.98;4.65;;;21.20;55.50;;;;;;4942603;28;97070;-59
2021/12/22 08:57:19;;;;;;;14.82;4.82;;;21.20;55.60;;;;;;4942016;28;96339;-59
2021/12/22 08:59:51;;;;;;;18.77;6.90;;;21.10;55.70;;;;;;4940162;28;95735;-53
2021/12/22 09:02:23;;;;;;;15.52;6.68;;;21.10;56.00;;;;;;4930066;28;96382;-56
2021/12/22 09:04:55;;;;;;;12.98;5.32;;;21.10;56.60;;;;;;4938389;28;96123;-59
2021/12/22 09:07:26;;;;;;;16.13;5.03;;;21.20;57.70;;;;;;4942884;28;95527;-53
2021/12/22 09:09:57;;;;;;;15.18;4.50;;;21.50;57.80;;;;;;4943790;28;96344;-58
2021/12/22 09:12:29;;;;;;;15.07;4.63;;;21.60;57.70;;;;;;4944660;28;96118;-57
2021/12/22 09:15:02;;;;;;;12.95;3.95;;;21.60;57.80;;;;;;4935524;28;96163;-58
2021/12/22 09:17:32;;;;;;;8.35;3.63;;;21.70;58.30;;;;;;4932013;28;97454;-59
2021/12/22 09:20:04;;;;;;;15.85;4.30;;;21.70;58.10;;;;;;4939054;28;96622;-57
2021/12/22 09:22:35;;;;;;;11.82;4.38;;;21.70;58.40;;;;;;4938341;28;95681;-56
2021/12/22 09:25:10;;;;;;;8.75;3.47;;;21.70;58.60;;;;;;4942406;28;96514;-56
2021/12/22 09:27:41;;;;;;;13.40;4.35;;;21.80;58.60;;;;;;4942370;28;96213;-54
2021/12/22 09:30:14;;;;;;;10.57;3.90;;;21.80;58.90;;;;;;4937176;28;95842;-57
2021/12/22 09:32:44;;;;;;;22.52;5.05;;;21.70;59.40;;;;;;4939036;28;95580;-56
2021/12/22 09:35:13;;;;;;;13.77;4.22;;;21.70;59.70;;;;;;4944146;28;96392;-59
2021/12/22 09:37:44;;;;;;;13.70;4.35;;;21.70;59.80;;;;;;4933393;28;95864;-57
2021/12/22 09:40:16;;;;;;;15.27;4.10;;;21.60;59.80;;;;;;4939861;28;98261;-58
2021/12/22 09:42:46;;;;;;;9.13;3.47;;;21.60;60.10;;;;;;4947399;28;96167;-56
2021/12/22 09:45:19;;;;;;;9.43;3.58;;;21.50;60.20;;;;;;4933089;28;96039;-58
2021/12/22 09:48:18;;;;;;;11.30;4.05;;;21.50;60.50;;;;;;4937285;28;96253;-58
2021/12/22 09:50:54;;;;;;;12.38;3.92;;;21.50;60.80;;;;;;4935479;28;95482;-57
2021/12/22 09:53:27;;;;;;;8.88;3.75;;;21.50;61.00;;;;;;4941518;28;95656;-59
2021/12/22 09:55:59;;;;;;;14.68;4.20;;;21.40;61.20;;;;;;4942524;28;98105;-56
2021/12/22 09:58:30;;;;;;;16.73;4.65;;;21.40;61.50;;;;;;4939264;28;95918;-57
2021/12/22 10:01:02;;;;;;;12.80;3.47;;;21.40;61.60;;;;;;4927196;28;99076;-56
2021/12/22 10:03:34;;;;;;;12.32;4.43;;;21.30;61.80;;;;;;4938897;28;96519;-56
2021/12/22 10:06:08;;;;;;;15.18;4.40;;;21.30;62.00;;;;;;4938336;28;96115;-58
2021/12/22 10:08:51;;;;;;;11.02;3.70;;;21.20;62.00;;;;;;4937572;28;96113;-57
2021/12/22 10:11:23;;;;;;;11.25;3.53;;;21.20;61.90;;;;;;4932306;28;95882;-58
2021/12/22 10:13:54;;;;;;;15.70;4.13;;;21.20;62.00;;;;;;4937239;28;95868;-54
2021/12/22 10:16:28;;;;;;;8.90;3.38;;;21.10;62.30;;;;;;4926714;28;96251;-61
2021/12/22 10:19:10;;;;;;;8.25;3.55;;;21.10;62.50;;;;;;4932210;28;96124;-60
2021/12/22 10:22:00;;;;;;;12.77;3.17;;;21.10;62.80;;;;;;4938125;28;95677;-58
2021/12/22 10:24:40;;;;;;;12.53;3.20;;;21.10;62.90;;;;;;4943228;28;95360;-58
2021/12/22 10:27:22;;;;;;;7.95;3.75;;;21.10;62.90;;;;;;4939260;28;96006;-55
2021/12/22 10:29:53;;;;;;;14.80;3.05;;;21.00;62.90;;;;;;4933082;28;96501;-60
2021/12/22 10:32:25;;;;;;;17.95;4.55;;;21.00;63.10;;;;;;4927846;28;95676;-58
2021/12/22 10:35:05;;;;;;;9.45;3.85;;;21.00;63.20;;;;;;4936781;28;95624;-57
2021/12/22 10:37:40;;;;;;;7.15;3.60;;;20.90;63.30;;;;;;4943024;28;95947;-59
2021/12/22 10:40:31;;;;;;;8.85;3.42;;;20.90;63.30;;;;;;4940609;28;97297;-56
2021/12/22 10:43:03;;;;;;;9.80;3.42;;;20.80;63.40;;;;;;4939127;28;95643;-56
2021/12/22 10:45:36;;;;;;;13.27;4.20;;;20.80;63.50;;;;;;4926095;28;95818;-57
2021/12/22 10:50:59;;;;;;;13.43;3.30;;;20.80;63.60;;;;;;4949596;28;95496;-55
2021/12/22 10:53:29;;;;;;;13.35;3.95;;;20.70;63.60;;;;;;4951378;28;96533;-56
2021/12/22 10:56:02;;;;;;;10.50;3.70;;;20.70;63.80;;;;;;4959994;28;95671;-58
2021/12/22 10:58:34;;;;;;;10.10;3.35;;;20.70;63.70;;;;;;4960738;28;96413;-54
2021/12/22 11:01:13;;;;;;;12.07;3.20;;;20.60;63.80;;;;;;4948501;28;95842;-56
2021/12/22 11:03:52;;;;;;;14.35;3.40;;;20.70;57.40;;;;;;4962805;28;96049;-53
2021/12/22 11:06:29;;;;;;;13.05;3.22;;;20.60;63.70;;;;;;4957696;28;95386;-60
2021/12/22 11:09:03;;;;;;;10.77;2.90;;;20.60;63.70;;;;;;4955029;28;97138;-54
2021/12/22 11:11:59;;;;;;;13.93;3.67;;;20.50;63.70;;;;;;4968089;28;95812;-55
2021/12/22 11:14:36;;;;;;;14.43;3.42;;;20.50;63.70;;;;;;4956385;28;95942;-56
2021/12/22 11:17:11;;;;;;;10.63;3.58;;;20.40;63.80;;;;;;4948334;28;96016;-59
2021/12/22 11:20:02;;;;;;;10.18;3.53;;;20.40;63.80;;;;;;4956517;28;96912;-59
2021/12/22 11:22:47;;;;;;;8.57;3.25;;;20.40;63.80;;;;;;4961880;28;95941;-54
2021/12/22 11:25:18;;;;;;;10.93;3.13;;;20.40;64.00;;;;;;4984443;28;95944;-56
2021/12/22 11:27:52;;;;;;;7.60;2.75;;;20.40;64.00;;;;;;4974944;28;95278;-60
2021/12/22 11:30:28;;;;;;;12.93;3.40;;;20.40;64.10;;;;;;4960965;28;96625;-58
2021/12/22 11:32:59;;;;;;;11.35;3.38;;;20.30;64.10;;;;;;4994720;28;95683;-60
2021/12/22 11:35:33;;;;;;;10.37;3.20;;;20.30;64.20;;;;;;4966924;28;95517;-60
2021/12/22 11:38:05;;;;;;;13.65;3.58;;;20.20;64.20;;;;;;4960675;28;96483;-60
2021/12/22 11:40:35;;;;;;;11.55;3.08;;;20.20;64.30;;;;;;4962532;28;98716;-57
2021/12/22 11:43:05;;;;;;;8.13;2.35;;;20.20;64.40;;;;;;4966700;28;95925;-56
2021/12/22 11:45:37;;;;;;;10.85;2.85;;;20.10;64.30;;;;;;4958225;28;97341;-54
2021/12/22 11:48:10;;;;;;;8.60;2.83;;;20.10;64.30;;;;;;4983205;28;95855;-56
2021/12/22 11:50:46;;;;;;;11.75;3.40;;;20.10;64.40;;;;;;4962962;28;96612;-55
2021/12/22 11:53:16;;;;;;;9.15;2.38;;;20.10;64.30;;;;;;4962839;28;95475;-60
2021/12/22 11:55:55;;;;;;;9.15;3.13;;;20.00;64.30;;;;;;4966114;28;95526;-56
2021/12/22 11:58:33;;;;;;;9.48;3.22;;;20.00;64.40;;;;;;4958735;28;96172;-57
2021/12/22 12:01:11;;;;;;;9.80;3.17;;;20.00;64.40;;;;;;4956081;28;97367;-56
2021/12/22 12:03:45;;;;;;;11.35;3.63;;;20.10;58.00;;;;;;4958668;28;95794;-53
2021/12/22 12:06:21;;;;;;;11.88;2.80;;;20.00;64.50;;;;;;4960120;28;95453;-60
2021/12/22 12:09:10;;;;;;;7.63;2.47;;;19.90;64.50;;;;;;4955173;28;95798;-57
2021/12/22 12:11:53;;;;;;;7.97;2.40;;;19.90;64.50;;;;;;4961557;28;97033;-59
2021/12/22 12:14:53;;;;;;;11.48;3.25;;;19.90;64.60;;;;;;4958831;28;96013;-56
2021/12/22 12:23:33;;;;;;;8.70;3.17;;;19.80;62.30;;;;;;4958672;28;96068;-57
2021/12/22 12:26:06;;;;;;;8.68;3.28;;;19.80;64.90;;;;;;4955170;28;95976;-54
2021/12/22 12:28:49;;;;;;;12.27;3.05;;;19.70;64.90;;;;;;4965717;28;97222;-57
2021/12/22 12:31:41;;;;;;;8.27;2.50;;;19.70;65.10;;;;;;4953708;28;98502;-57
2021/12/22 12:34:24;;;;;;;11.95;3.72;;;19.70;65.20;;;;;;4962431;28;97629;-57
2021/12/22 12:36:56;;;;;;;10.95;3.33;;;19.60;65.20;;;;;;4967647;28;95594;-55
2021/12/22 12:39:54;;;;;;;7.77;2.53;;;19.60;65.30;;;;;;4960112;28;95596;-60
2021/12/22 12:42:25;;;;;;;10.38;4.00;;;19.60;65.40;;;;;;4951279;28;96141;-54
2021/12/22 12:44:56;;;;;;;7.78;2.35;;;19.60;65.40;;;;;;4964387;28;95876;-56
2021/12/22 12:47:27;;;;;;;9.95;3.28;;;19.50;65.40;;;;;;4932666;28;95790;-52
2021/12/22 12:50:20;;;;;;;5.97;2.50;;;19.60;65.50;;;;;;4940952;28;95526;-55
2021/12/22 12:52:51;;;;;;;8.15;2.53;;;19.50;65.50;;;;;;4934916;28;95436;-56
2021/12/22 12:55:23;;;;;;;8.00;2.53;;;19.50;65.70;;;;;;4940670;28;96036;-54
2021/12/22 12:58:12;;;;;;;6.80;2.50;;;19.40;65.60;;;;;;4932005;28;95455;-56
2021/12/22 13:00:47;;;;;;;9.40;3.15;;;19.40;65.80;;;;;;4930246;28;95919;-52
2021/12/22 13:03:19;;;;;;;10.32;2.70;;;19.40;65.80;;;;;;4936351;28;95798;-59
2021/12/22 13:05:51;;;;;;;10.68;2.28;;;19.40;65.80;;;;;;4944003;28;95953;-60
2021/12/22 13:08:31;;;;;;;8.88;2.95;;;19.40;65.80;;;;;;4941064;28;96508;-54
2021/12/22 13:11:12;;;;;;;7.90;2.28;;;19.40;65.90;;;;;;4945693;28;95725;-55
2021/12/22 13:16:44;;;;;;;5.72;2.30;;;19.30;66.00;;;;;;4921798;28;96536;-59
2021/12/22 13:19:41;;;;;;;6.47;2.22;;;19.30;66.20;;;;;;4919757;28;96103;-55
2021/12/22 13:22:21;;;;;;;8.77;2.70;;;19.20;66.10;;;;;;4944423;28;95869;-55
2021/12/22 13:25:10;;;;;;;11.52;2.95;;;19.20;66.20;;;;;;4927880;28;96003;-55
2021/12/22 13:27:44;;;;;;;10.43;2.80;;;19.20;66.20;;;;;;4941005;28;96423;-52
2021/12/22 13:30:19;;;;;;;5.95;2.97;;;19.20;66.30;;;;;;4932660;28;95756;-56
2021/12/22 13:33:06;;;;;;;10.18;2.92;;;19.10;66.30;;;;;;4934333;28;95391;-55
2021/12/22 13:35:58;;;;;;;8.50;2.63;;;19.20;66.40;;;;;;4945711;28;95390;-60
2021/12/22 13:38:35;;;;;;;8.45;3.10;;;19.10;66.40;;;;;;4939017;28;97117;-57
2021/12/22 13:41:11;;;;;;;10.82;2.78;;;19.10;66.40;;;;;;4940312;28;95767;-57
2021/12/22 13:43:48;;;;;;;10.15;2.97;;;19.10;66.60;;;;;;4938127;28;95866;-54